Washington Court House, OH

6:24 PM EST on December 27, 2014 (GMT -0500)
OHDOT | Change Station
CLOSE
Current Station
Personal Weather Station
Location: Washington Court House, OH
Elevation: 1004 ft
Nearby Weather Stations

Elev 1004 ft 39.53 °N, 83.48 °W | Updated 6 days ago

Rain
Rain
46 °F
Feels Like 46 °F
N
9
Wind Variable Wind from SW
Gusts 15 mph

Today
High -- | Low -- °F
--% Chance of Precip.
Yesterday
High -- | Low -- °F
Precip. -- in
7:53 AM 5:16 PM
Waxing Crescent, 41% visible
Pressure 30.09 in
Visibility 5.0 miles
Clouds Scattered Clouds 1300 ft
Overcast 2200 ft
Dew Point 43 °F
Humidity 86%
Rainfall -999.00 in
Snow Depth Not available.
UV 0 out of 12
Pollen .10 out of 12
Air Quality Not available.
Flu Activity Not available.
METAR KILN 272302Z AUTO 21007KT 5SM RA BR SCT013 OVC022 08/07 A3009 RMK AO2 P0001 T00830072

More Conditions Fewer Conditions

Pressure 30.09 in
Visibility 5.0 miles
Clouds Scattered Clouds 1300 ft
Overcast 2200 ft
Dew Point 43 °F
Humidity 86%
Rainfall -999.00 in
Snow Depth Not available.
UV 0 out of 12
Pollen .10 out of 12
Air Quality Not available.
Flu Activity Not available.
METAR KILN 272302Z AUTO 21007KT 5SM RA BR SCT013 OVC022 08/07 A3009 RMK AO2 P0001 T00830072

More Conditions Fewer Conditions

10-Day Weather Forecast

Almanac

Astronomy

Dec. 27, 2014 Rise Set
Actual Time
Civil Twilight
Nautical Twilight
Astronomical Twilight
Moon
Length of Visible Light
Length of Day
Tomorrow will be .
, % of the Moon is Illuminated

Today's Extremes

State Highs State Lows

Community

WunderPhotos

Upload Photos

1,781,102 photos uploaded!

WunderBlogs® & News

Nearby

Air Quality

  Air Quality AQ Index Pollutant
Not available.

Snow Depth

Station Depth Elevation

Earthquake Activity

City Distance Mag. Time & Date
Minimum magnitude displayed is 2.5.

Coastal Water Temperatures

Place Temperature

Nearby Weather Stations